createdAt,value
2018-03-15T00:00:07.520Z,100381.88
2018-03-15T00:01:11.747Z,100384.83
2018-03-15T00:02:16.082Z,100385.25
2018-03-15T00:03:27.220Z,100376.39
2018-03-15T00:04:36.402Z,100382.28
2018-03-15T00:05:40.646Z,100378.08
2018-03-15T00:06:45.600Z,100381.44
2018-03-15T00:07:51.161Z,100379.34
2018-03-15T00:09:00.770Z,100378.06
2018-03-15T00:10:07.430Z,100369.63
2018-03-15T00:11:12.427Z,100365.42
2018-03-15T00:12:16.619Z,100366.70
2018-03-15T00:13:22.741Z,100359.95
2018-03-15T00:14:31.862Z,100363.73
2018-03-15T00:15:37.484Z,100360.78
2018-03-15T00:16:42.466Z,100362.89
2018-03-15T00:17:46.704Z,100365.83
2018-03-15T00:18:54.761Z,100358.67
2018-03-15T00:20:01.734Z,100351.93
2018-03-15T00:21:07.534Z,100351.94
2018-03-15T00:22:11.731Z,100353.18
2018-03-15T00:23:16.000Z,100351.92
2018-03-15T00:24:22.540Z,100350.26
2018-03-15T00:25:29.595Z,100355.70
2018-03-15T00:26:36.690Z,100352.78
2018-03-15T00:27:41.650Z,100351.09
2018-03-15T00:28:45.886Z,100351.09
2018-03-15T00:29:53.219Z,100341.81
2018-03-15T00:31:00.557Z,100351.92
2018-03-15T00:32:06.162Z,100351.07
2018-03-15T00:33:10.354Z,100346.04
2018-03-15T00:34:15.386Z,100340.95
2018-03-15T00:35:21.519Z,100343.91
2018-03-15T00:36:29.516Z,100346.45
2018-03-15T00:37:35.149Z,100339.70
2018-03-15T00:38:39.893Z,100345.61
2018-03-15T00:39:44.155Z,100340.11
2018-03-15T00:40:48.324Z,100340.96
2018-03-15T00:41:57.303Z,100336.33
2018-03-15T00:43:03.009Z,100330.44
2018-03-15T00:44:07.566Z,100328.33
2018-03-15T00:45:11.826Z,100329.58
2018-03-15T00:46:16.775Z,100324.95
2018-03-15T00:47:22.492Z,100326.64
2018-03-15T00:48:29.555Z,100330.85
2018-03-15T00:49:35.041Z,100329.59
2018-03-15T00:50:40.160Z,100335.91
2018-03-15T00:51:45.122Z,100331.69
2018-03-15T00:52:49.584Z,100338.42
2018-03-15T00:53:59.929Z,100338.02
2018-03-15T00:55:06.213Z,100335.08
2018-03-15T00:56:11.210Z,100340.55
2018-03-15T00:57:15.407Z,100338.45
2018-03-15T00:58:20.326Z,100339.70
2018-03-15T00:59:30.193Z,100332.11
2018-03-15T01:00:35.913Z,100331.70
2018-03-15T01:01:40.159Z,100336.76
2018-03-15T01:02:44.340Z,100336.77
2018-03-15T01:03:48.534Z,100329.59
2018-03-15T01:04:57.419Z,100330.84
2018-03-15T01:06:05.463Z,100326.62
2018-03-15T01:07:10.583Z,100327.91
2018-03-15T01:08:14.781Z,100318.20
2018-03-15T01:09:21.973Z,100322.42
2018-03-15T01:10:31.947Z,100321.14
2018-03-15T01:11:37.830Z,100316.08
2018-03-15T01:12:42.825Z,100313.56
2018-03-15T01:13:47.008Z,100322.00
2018-03-15T01:14:54.362Z,100311.87
2018-03-15T01:16:02.445Z,100317.77
2018-03-15T01:17:07.459Z,100317.36
2018-03-15T01:18:11.689Z,100317.34
2018-03-15T01:19:15.863Z,100312.30
2018-03-15T01:20:23.177Z,100316.08
2018-03-15T01:21:31.944Z,100319.48
2018-03-15T01:22:38.204Z,100308.94
2018-03-15T01:23:42.382Z,100308.92
2018-03-15T01:24:48.225Z,100300.94
2018-03-15T01:25:57.391Z,100303.04
2018-03-15T01:27:06.635Z,100299.23
2018-03-15T01:28:10.858Z,100301.77
2018-03-15T01:29:15.088Z,100305.55
2018-03-15T01:30:19.557Z,100297.96
2018-03-15T01:31:29.763Z,100291.23
2018-03-15T01:32:36.331Z,100297.96
2018-03-15T01:33:40.538Z,100289.98
2018-03-15T01:34:44.803Z,100293.35
2018-03-15T01:35:49.495Z,100284.90
2018-03-15T01:36:58.476Z,100281.96
2018-03-15T01:38:04.295Z,100289.13
2018-03-15T01:39:08.691Z,100278.60
2018-03-15T01:40:13.670Z,100278.61
2018-03-15T01:41:17.846Z,100278.59
2018-03-15T01:42:26.025Z,100276.89
2018-03-15T01:43:32.948Z,100269.33
2018-03-15T01:44:37.554Z,100275.20
2018-03-15T01:45:41.740Z,100279.45
2018-03-15T01:46:46.766Z,100280.29
2018-03-15T01:47:55.247Z,100271.83
2018-03-15T01:49:04.141Z,100271.44
2018-03-15T01:50:09.223Z,100275.65
2018-03-15T01:51:14.210Z,100270.58
2018-03-15T01:52:18.947Z,100269.75
2018-03-15T01:53:27.848Z,100269.73
2018-03-15T01:54:35.529Z,100268.06
2018-03-15T01:55:39.900Z,100265.12
2018-03-15T01:56:44.864Z,100265.11
2018-03-15T01:57:49.274Z,100262.57
2018-03-15T01:58:58.441Z,100263.44
2018-03-15T02:00:05.612Z,100257.11
2018-03-15T02:01:10.109Z,100255.84
2018-03-15T02:02:14.280Z,100254.16
2018-03-15T02:03:18.512Z,100249.92
2018-03-15T02:04:27.537Z,100246.58
2018-03-15T02:05:34.709Z,100243.21
2018-03-15T02:06:39.126Z,100236.91
2018-03-15T02:07:43.329Z,100236.45
2018-03-15T02:08:48.365Z,100241.94
2018-03-15T02:09:56.415Z,100236.05
2018-03-15T02:11:04.739Z,100230.15
2018-03-15T02:12:09.485Z,100232.27
2018-03-15T02:13:14.441Z,100224.66
2018-03-15T02:14:18.683Z,100225.52
2018-03-15T02:15:27.349Z,100222.16
2018-03-15T02:16:34.196Z,100223.42
2018-03-15T02:17:39.520Z,100220.45
2018-03-15T02:18:43.738Z,100220.45
2018-03-15T02:19:47.998Z,100226.36
2018-03-15T02:20:59.971Z,100228.03
2018-03-15T02:22:05.310Z,100222.12
2018-03-15T02:23:10.350Z,100221.73
2018-03-15T02:24:14.536Z,100220.86
2018-03-15T02:25:20.223Z,100220.87
2018-03-15T02:26:30.266Z,100218.77
2018-03-15T02:27:36.684Z,100220.02
2018-03-15T02:28:41.686Z,100217.51
2018-03-15T02:29:45.884Z,100216.25
2018-03-15T02:30:53.278Z,100216.27
2018-03-15T02:32:01.506Z,100211.61
2018-03-15T02:33:07.292Z,100207.83
2018-03-15T02:34:11.492Z,100210.77
2018-03-15T02:35:16.468Z,100210.36
2018-03-15T02:36:23.265Z,100202.77
2018-03-15T02:37:31.259Z,100202.78
2018-03-15T02:38:37.788Z,100198.12
2018-03-15T02:39:42.018Z,100206.16
2018-03-15T02:40:46.200Z,100194.37
2018-03-15T02:41:54.613Z,100195.60
2018-03-15T02:43:01.883Z,100188.02
2018-03-15T02:44:07.734Z,100191.40
2018-03-15T02:45:11.925Z,100191.84
2018-03-15T02:46:16.862Z,100187.60
2018-03-15T02:47:27.295Z,100190.98
2018-03-15T02:48:35.431Z,100193.52
2018-03-15T02:49:39.755Z,100195.18
2018-03-15T02:50:43.941Z,100198.14
2018-03-15T02:51:48.160Z,100192.23
2018-03-15T02:52:57.949Z,100196.02
2018-03-15T02:54:05.525Z,100188.88
2018-03-15T02:55:10.521Z,100186.77
2018-03-15T02:56:14.752Z,100189.30
2018-03-15T02:57:18.965Z,100184.25
2018-03-15T02:58:26.997Z,100190.56
2018-03-15T02:59:32.610Z,100185.49
2018-03-15T03:00:38.151Z,100180.47
2018-03-15T03:01:42.366Z,100185.95
2018-03-15T03:02:47.250Z,100183.39
2018-03-15T03:03:55.979Z,100181.31
2018-03-15T03:05:01.149Z,100179.61
2018-03-15T03:06:07.787Z,100172.05
2018-03-15T03:07:11.989Z,100173.30
2018-03-15T03:08:16.953Z,100174.97
2018-03-15T03:09:26.516Z,100167.81
2018-03-15T03:10:34.979Z,100170.76
2018-03-15T03:11:39.637Z,100170.37
2018-03-15T03:12:43.825Z,100175.81
2018-03-15T03:13:48.015Z,100169.51
2018-03-15T03:14:56.999Z,100175.83
2018-03-15T03:16:04.378Z,100173.70
2018-03-15T03:17:10.701Z,100176.25
2018-03-15T03:18:14.897Z,100170.34
2018-03-15T03:19:19.659Z,100160.66
2018-03-15T03:20:31.964Z,100162.77
2018-03-15T03:21:38.170Z,100156.05
2018-03-15T03:22:43.373Z,100159.39
2018-03-15T03:23:47.570Z,100167.41
2018-03-15T03:24:57.182Z,100159.81
2018-03-15T03:26:03.323Z,100162.77
2018-03-15T03:27:08.905Z,100155.19
2018-03-15T03:28:13.137Z,100156.45
2018-03-15T03:29:17.307Z,100158.57
2018-03-15T03:30:24.237Z,100157.70
2018-03-15T03:31:29.825Z,100156.45
2018-03-15T03:32:35.489Z,100155.19
2018-03-15T03:33:40.638Z,100162.34
2018-03-15T03:34:45.623Z,100157.29
2018-03-15T03:35:51.151Z,100158.98
2018-03-15T03:37:00.499Z,100158.55
2018-03-15T03:38:05.827Z,100161.92
2018-03-15T03:39:10.126Z,100156.02
2018-03-15T03:40:14.326Z,100159.81
2018-03-15T03:41:18.502Z,100150.14
2018-03-15T03:42:26.011Z,100151.83
2018-03-15T03:43:34.960Z,100150.13
2018-03-15T03:44:40.043Z,100142.14
2018-03-15T03:45:44.263Z,100150.56
2018-03-15T03:46:48.465Z,100139.19
2018-03-15T03:47:59.664Z,100139.63
2018-03-15T03:49:07.116Z,100137.94
2018-03-15T03:50:11.300Z,100138.77
2018-03-15T03:51:15.486Z,100130.78
2018-03-15T03:52:20.366Z,100131.60
2018-03-15T03:53:30.240Z,100140.01
2018-03-15T03:54:37.516Z,100135.38
2018-03-15T03:55:41.695Z,100135.39
2018-03-15T03:56:45.881Z,100125.70
2018-03-15T03:57:52.563Z,100134.56
2018-03-15T03:58:59.745Z,100132.01
2018-03-15T04:00:08.237Z,100139.59
2018-03-15T04:01:12.474Z,100131.60
2018-03-15T04:02:16.638Z,100136.23
2018-03-15T04:03:25.453Z,100133.27
2018-03-15T04:04:31.118Z,100128.22
2018-03-15T04:05:38.354Z,100130.75
2018-03-15T04:06:42.572Z,100128.64
2018-03-15T04:07:46.768Z,100129.91
2018-03-15T04:08:55.523Z,100130.75
2018-03-15T04:10:02.874Z,100127.36
2018-03-15T04:11:09.192Z,100129.48
2018-03-15T04:12:13.451Z,100129.46
2018-03-15T04:13:17.638Z,100127.80
2018-03-15T04:14:27.166Z,100131.59
2018-03-15T04:15:33.543Z,100128.60
2018-03-15T04:16:38.534Z,100128.20
2018-03-15T04:17:42.784Z,100121.87
2018-03-15T04:18:46.976Z,100119.76
2018-03-15T04:19:53.571Z,100119.75
2018-03-15T04:21:02.865Z,100117.66
2018-03-15T04:22:07.856Z,100110.52
2018-03-15T04:23:12.084Z,100109.25
2018-03-15T04:24:16.261Z,100107.98
2018-03-15T04:25:22.451Z,100100.80
2018-03-15T04:26:33.005Z,100099.53
2018-03-15T04:27:39.462Z,100094.05
2018-03-15T04:28:43.684Z,100094.05
2018-03-15T04:29:47.891Z,100097.84
2018-03-15T04:31:01.004Z,100090.26
2018-03-15T04:32:07.353Z,100102.90
2018-03-15T04:33:12.321Z,100101.20
2018-03-15T04:34:16.512Z,100091.95
2018-03-15T04:35:22.720Z,100094.05
2018-03-15T04:36:30.508Z,100092.32
2018-03-15T04:37:36.664Z,100090.63
2018-03-15T04:38:40.872Z,100091.92
2018-03-15T04:39:45.065Z,100094.02
2018-03-15T04:40:49.267Z,100093.58
2018-03-15T04:41:58.620Z,100098.67
2018-03-15T04:43:05.895Z,100090.66
2018-03-15T04:44:10.137Z,100088.13
2018-03-15T04:45:14.315Z,100091.89
2018-03-15T04:46:18.530Z,100091.05
2018-03-15T04:47:26.477Z,100090.23
2018-03-15T04:48:32.250Z,100088.53
2018-03-15T04:49:36.890Z,100088.92
2018-03-15T04:50:41.287Z,100080.51
2018-03-15T04:51:45.506Z,100083.08
2018-03-15T04:52:49.745Z,100082.64
2018-03-15T04:53:57.235Z,100078.02
2018-03-15T04:55:03.082Z,100078.84
2018-03-15T04:56:08.354Z,100079.68
2018-03-15T04:57:13.313Z,100077.19
2018-03-15T04:58:17.492Z,100065.81
2018-03-15T04:59:24.851Z,100071.70
2018-03-15T05:00:31.806Z,100065.38
2018-03-15T05:01:38.501Z,100062.84
2018-03-15T05:02:42.683Z,100066.64
2018-03-15T05:03:46.881Z,100059.48
2018-03-15T05:04:52.048Z,100056.96
2018-03-15T05:06:00.088Z,100058.19
2018-03-15T05:07:05.860Z,100055.27
2018-03-15T05:08:10.092Z,100060.32
2018-03-15T05:09:14.273Z,100056.09
2018-03-15T05:10:18.459Z,100051.04
2018-03-15T05:11:28.238Z,100054.44
2018-03-15T05:12:34.227Z,100056.95
2018-03-15T05:13:38.692Z,100054.43
2018-03-15T05:14:42.935Z,100060.72
2018-03-15T05:15:47.130Z,100063.24
2018-03-15T05:16:53.558Z,100051.03
2018-03-15T05:17:59.543Z,100056.48
2018-03-15T05:19:04.623Z,100052.70
2018-03-15T05:20:09.579Z,100051.86
2018-03-15T05:21:13.786Z,100051.47
2018-03-15T05:22:18.019Z,100054.39
2018-03-15T05:23:26.902Z,100040.05
2018-03-15T05:24:34.335Z,100052.30
2018-03-15T05:25:39.167Z,100039.62
2018-03-15T05:26:43.375Z,100035.42
2018-03-15T05:27:47.576Z,100042.14
2018-03-15T05:28:54.097Z,100034.56
2018-03-15T05:30:01.399Z,100024.05
2018-03-15T05:31:07.392Z,100021.96
2018-03-15T05:32:12.407Z,100027.02
2018-03-15T05:33:16.621Z,100016.91
2018-03-15T05:34:23.468Z,100024.48
2018-03-15T05:35:31.105Z,100016.47
2018-03-15T05:36:38.163Z,100012.23
2018-03-15T05:37:42.348Z,100019.39
2018-03-15T05:38:46.594Z,100016.47
2018-03-15T05:39:53.959Z,100015.63
2018-03-15T05:41:04.119Z,100015.59
2018-03-15T05:42:08.537Z,100013.50
2018-03-15T05:43:12.757Z,100012.63
2018-03-15T05:44:17.002Z,100019.82
2018-03-15T05:45:24.898Z,100014.77
2018-03-15T05:46:31.356Z,100006.34
2018-03-15T05:47:37.473Z,100013.06
2018-03-15T05:48:41.663Z,100012.23
2018-03-15T05:49:45.895Z,100009.27
2018-03-15T05:50:51.376Z,100008.83
2018-03-15T05:52:01.349Z,100011.80
2018-03-15T05:53:07.667Z,100010.09
2018-03-15T05:54:11.876Z,100011.37
2018-03-15T05:55:16.065Z,100016.46
2018-03-15T05:56:23.963Z,100010.96
2018-03-15T05:57:29.166Z,100013.05
2018-03-15T05:58:34.859Z,100011.79
2018-03-15T05:59:40.043Z,100010.48
2018-03-15T06:00:44.223Z,100010.92
2018-03-15T06:01:48.487Z,100013.45
2018-03-15T06:03:03.421Z,100015.10
2018-03-15T06:04:08.114Z,100014.67
2018-03-15T06:05:12.380Z,100006.25
2018-03-15T06:06:16.569Z,100005.41
2018-03-15T06:07:24.617Z,100006.68
2018-03-15T06:08:33.707Z,100001.62
2018-03-15T06:09:39.062Z,100009.22
2018-03-15T06:10:43.249Z,99994.47
2018-03-15T06:11:48.191Z,99999.53
2018-03-15T06:12:56.495Z,100000.75
2018-03-15T06:14:02.870Z,99989.36
2018-03-15T06:15:08.179Z,99993.59
2018-03-15T06:16:12.376Z,99994.81
2018-03-15T06:17:17.323Z,99995.69
2018-03-15T06:18:26.832Z,99987.27
2018-03-15T06:19:33.087Z,100000.73
2018-03-15T06:20:39.273Z,99995.25
2018-03-15T06:21:43.508Z,99993.53
2018-03-15T06:22:47.698Z,99997.33
2018-03-15T06:23:55.691Z,99999.86
2018-03-15T06:25:02.029Z,99993.52
2018-03-15T06:26:09.553Z,100001.12
2018-03-15T06:27:13.774Z,100005.75
2018-03-15T06:28:17.968Z,100001.95
2018-03-15T06:29:27.034Z,99996.89
2018-03-15T06:30:33.890Z,100004.87
2018-03-15T06:31:40.131Z,99993.53
2018-03-15T06:32:44.315Z,100000.67
2018-03-15T06:33:48.504Z,99988.02
2018-03-15T06:34:58.253Z,99995.56
2018-03-15T06:36:04.960Z,99996.39
2018-03-15T06:37:09.279Z,99989.22
2018-03-15T06:38:13.481Z,99998.52
2018-03-15T06:39:17.659Z,100001.89
2018-03-15T06:40:25.416Z,99988.36
2018-03-15T06:41:32.821Z,99998.07
2018-03-15T06:42:38.504Z,99988.34
2018-03-15T06:43:43.462Z,99986.20
2018-03-15T06:44:47.638Z,99981.14
2018-03-15T06:45:57.832Z,99983.67
2018-03-15T06:47:04.285Z,99974.80
2018-03-15T06:48:08.996Z,99977.34
2018-03-15T06:49:13.205Z,99970.61
2018-03-15T06:50:17.437Z,99973.09
2018-03-15T06:51:25.718Z,99971.84
2018-03-15T06:52:33.727Z,99978.97
2018-03-15T06:53:38.286Z,99975.14
2018-03-15T06:54:42.469Z,99971.34
2018-03-15T06:55:46.710Z,99975.55
2018-03-15T06:56:55.176Z,99972.17
2018-03-15T06:58:00.814Z,99971.72
2018-03-15T06:59:07.093Z,99976.73
2018-03-15T07:00:11.316Z,99967.92
2018-03-15T07:01:15.538Z,99968.30
2018-03-15T07:02:20.173Z,99971.64
2018-03-15T07:03:28.034Z,99975.83
2018-03-15T07:04:34.204Z,99961.89
2018-03-15T07:05:40.165Z,99968.20
2018-03-15T07:06:44.344Z,99977.02
2018-03-15T07:07:48.544Z,99975.73
2018-03-15T07:08:57.766Z,99969.39
2018-03-15T07:10:04.979Z,99972.71
2018-03-15T07:11:09.848Z,99970.63
2018-03-15T07:12:14.824Z,99971.45
2018-03-15T07:13:19.042Z,99968.83
2018-03-15T07:14:28.534Z,99972.56
2018-03-15T07:15:34.726Z,99970.83
2018-03-15T07:16:39.128Z,99969.11
2018-03-15T07:17:44.062Z,99969.55
2018-03-15T07:18:48.241Z,99970.39
2018-03-15T07:19:56.852Z,99969.47
2018-03-15T07:21:03.081Z,99965.27
2018-03-15T07:22:10.239Z,99967.74
2018-03-15T07:23:14.430Z,99963.09
2018-03-15T07:24:18.622Z,99969.42
2018-03-15T07:25:26.580Z,99971.88
2018-03-15T07:26:34.645Z,99973.14
2018-03-15T07:27:40.049Z,99979.81
2018-03-15T07:28:45.027Z,99976.39
2018-03-15T07:29:49.212Z,99973.38
2018-03-15T07:30:58.412Z,99970.39
2018-03-15T07:32:05.636Z,99969.46
2018-03-15T07:33:10.117Z,99964.36
2018-03-15T07:34:15.056Z,99960.93
2018-03-15T07:35:20.862Z,99955.82
2018-03-15T07:36:28.942Z,99961.27
2018-03-15T07:37:34.751Z,99960.91
2018-03-15T07:38:40.098Z,99974.02
2018-03-15T07:39:44.323Z,99968.05
2018-03-15T07:40:48.491Z,99970.55
2018-03-15T07:41:55.229Z,99968.82
2018-03-15T07:43:00.516Z,99965.28
2018-03-15T07:44:06.441Z,99960.63
2018-03-15T07:45:10.719Z,99957.55
2018-03-15T07:46:14.903Z,99961.31
2018-03-15T07:47:19.141Z,99964.16
2018-03-15T07:48:26.850Z,99955.18
2018-03-15T07:49:31.931Z,99962.28
2018-03-15T07:50:37.790Z,99960.94
2018-03-15T07:51:41.984Z,99958.81
2018-03-15T07:52:46.934Z,99956.64
2018-03-15T07:53:53.217Z,99968.80
2018-03-15T07:54:58.568Z,99958.64
2018-03-15T07:56:03.844Z,99958.69
2018-03-15T07:57:08.527Z,99966.33
2018-03-15T07:58:12.720Z,99960.83
2018-03-15T07:59:16.999Z,99963.70
2018-03-15T08:00:25.150Z,99959.50
2018-03-15T08:01:30.996Z,99962.00
2018-03-15T08:02:36.573Z,99958.55
2018-03-15T08:03:41.012Z,99958.50
2018-03-15T08:04:45.261Z,99960.14
2018-03-15T08:05:49.643Z,99952.16
2018-03-15T08:06:58.734Z,99954.65
2018-03-15T08:08:06.960Z,99955.83
2018-03-15T08:09:12.104Z,99965.50
2018-03-15T08:10:16.324Z,99964.58
2018-03-15T08:11:24.106Z,99961.52
2018-03-15T08:12:32.249Z,99964.36
2018-03-15T08:13:37.826Z,99962.19
2018-03-15T08:14:42.006Z,99961.78
2018-03-15T08:15:46.211Z,99969.33
2018-03-15T08:16:52.076Z,99970.91
2018-03-15T08:17:59.031Z,99968.36
2018-03-15T08:19:05.582Z,99972.95
2018-03-15T08:20:11.089Z,99966.58
2018-03-15T08:21:16.070Z,99971.68
2018-03-15T08:22:22.915Z,99977.11
2018-03-15T08:23:29.552Z,99980.93
2018-03-15T08:24:35.466Z,99970.66
2018-03-15T08:25:40.978Z,99970.28
2018-03-15T08:26:45.169Z,99969.91
2018-03-15T08:27:52.190Z,99970.33
2018-03-15T08:28:59.588Z,99968.13
2018-03-15T08:30:06.860Z,99974.75
2018-03-15T08:31:11.198Z,99981.48
2018-03-15T08:32:15.373Z,99976.39
2018-03-15T08:33:19.884Z,99972.46
2018-03-15T08:34:27.756Z,99965.59
2018-03-15T08:35:34.081Z,99976.16
2018-03-15T08:36:38.647Z,99973.62
2018-03-15T08:37:42.821Z,99962.56
2018-03-15T08:38:47.047Z,99964.22
2018-03-15T08:39:56.197Z,99971.92
2018-03-15T08:41:05.247Z,99958.35
2018-03-15T08:42:10.470Z,99968.88
2018-03-15T08:43:14.658Z,99966.98
2018-03-15T08:44:18.921Z,99971.52
2018-03-15T08:45:27.122Z,99965.80
2018-03-15T08:46:32.956Z,99954.24
2018-03-15T08:47:40.508Z,99955.13
2018-03-15T08:48:45.467Z,99946.61
2018-03-15T08:49:52.470Z,99941.50
2018-03-15T08:51:00.030Z,99947.37
2018-03-15T08:52:05.347Z,99939.28
2018-03-15T08:53:10.024Z,99948.20
2018-03-15T08:54:14.234Z,99951.64
2018-03-15T08:55:18.485Z,99945.20
2018-03-15T08:56:25.532Z,99947.70
2018-03-15T08:57:31.761Z,99950.94
2018-03-15T08:58:39.026Z,99948.78
2018-03-15T08:59:43.201Z,99947.17
2018-03-15T09:00:48.205Z,99943.55
2018-03-15T09:01:55.301Z,99947.61
2018-03-15T09:03:01.796Z,99938.48
2018-03-15T09:04:07.059Z,99944.24
2018-03-15T09:05:11.264Z,99937.22
2018-03-15T09:06:15.450Z,99931.71
2018-03-15T09:07:20.443Z,99935.02
2018-03-15T09:08:29.116Z,99928.92
2018-03-15T09:09:36.816Z,99923.20
2018-03-15T09:10:41.012Z,99924.45
2018-03-15T09:11:45.225Z,99917.91
2018-03-15T09:12:49.441Z,99911.86
2018-03-15T09:14:01.194Z,99919.93
2018-03-15T09:15:08.374Z,99918.78
2018-03-15T09:16:12.592Z,99916.95
2018-03-15T09:17:16.789Z,99914.01
2018-03-15T09:18:23.750Z,99913.14
2018-03-15T09:19:29.900Z,99913.91
2018-03-15T09:20:37.279Z,99910.73
2018-03-15T09:21:41.561Z,99898.60
2018-03-15T09:22:45.722Z,99901.63
2018-03-15T09:23:52.454Z,99896.00
2018-03-15T09:24:58.195Z,99892.59
2018-03-15T09:26:06.879Z,99885.84
2018-03-15T09:27:11.342Z,99875.28
2018-03-15T09:28:16.303Z,99885.23
2018-03-15T09:29:24.650Z,99885.36
2018-03-15T09:30:30.416Z,99880.09
2018-03-15T09:32:04.591Z,99876.04
2018-03-15T09:33:12.348Z,99881.00
2018-03-15T09:34:17.326Z,99871.28
2018-03-15T09:35:26.958Z,99884.80
2018-03-15T09:36:35.855Z,99865.43
2018-03-15T09:37:40.562Z,99872.81
2018-03-15T09:38:44.815Z,99858.17
2018-03-15T09:39:49.068Z,99863.47
2018-03-15T09:40:57.802Z,99860.04
2018-03-15T09:42:07.140Z,99854.30
2018-03-15T09:43:11.961Z,99838.42
2018-03-15T09:44:16.914Z,99848.22
2018-03-15T09:45:24.363Z,99843.70
2018-03-15T09:46:29.996Z,99849.53
2018-03-15T09:47:34.582Z,99843.20
2018-03-15T09:48:38.804Z,99846.52
2018-03-15T09:49:42.992Z,99838.05
2018-03-15T09:50:47.274Z,99835.41
2018-03-15T09:51:54.403Z,99842.38
2018-03-15T09:52:59.506Z,99847.84
2018-03-15T09:54:07.789Z,99842.05
2018-03-15T09:55:12.805Z,99843.99
2018-03-15T09:56:16.996Z,99840.56
2018-03-15T09:57:26.058Z,99832.13
2018-03-15T09:58:34.177Z,99837.83
2018-03-15T09:59:40.113Z,99827.40
2018-03-15T10:00:44.356Z,99826.00
2018-03-15T10:01:48.606Z,99829.13
2018-03-15T10:02:58.371Z,99828.89
2018-03-15T10:04:06.811Z,99814.44
2018-03-15T10:05:11.017Z,99823.76
2018-03-15T10:06:15.319Z,99812.60
2018-03-15T10:07:19.569Z,99819.31
2018-03-15T10:08:28.543Z,99822.20
2018-03-15T10:09:35.821Z,99822.64
2018-03-15T10:10:40.560Z,99820.11
2018-03-15T10:11:44.822Z,99815.07
2018-03-15T10:12:49.138Z,99817.67
2018-03-15T10:13:59.263Z,99804.29
2018-03-15T10:15:08.928Z,99819.99
2018-03-15T10:16:13.154Z,99813.73
2018-03-15T10:17:17.410Z,99810.92
2018-03-15T10:18:26.021Z,99799.09
2018-03-15T10:19:32.042Z,99797.05
2018-03-15T10:20:38.612Z,99800.72
2018-03-15T10:21:43.604Z,99804.48
2018-03-15T10:22:47.894Z,99801.83
2018-03-15T10:23:59.034Z,99796.63
2018-03-15T10:25:13.610Z,99797.03
2018-03-15T10:26:10.519Z,99801.93
2018-03-15T10:27:19.310Z,99795.73
2018-03-15T10:28:26.965Z,99801.15
2018-03-15T10:29:36.295Z,99799.16
2018-03-15T10:30:41.453Z,99804.67
2018-03-15T10:31:45.648Z,99806.75
2018-03-15T10:32:56.545Z,99806.25
2018-03-15T10:34:03.199Z,99793.45
2018-03-15T10:35:15.097Z,99785.53
2018-03-15T10:36:21.164Z,99800.77
2018-03-15T10:37:29.306Z,99778.39
2018-03-15T10:38:35.404Z,99790.84
2018-03-15T10:39:40.604Z,99784.87
2018-03-15T10:40:44.827Z,99786.13
2018-03-15T10:41:49.680Z,99773.26
2018-03-15T10:42:58.824Z,99775.63
2018-03-15T10:44:04.821Z,99776.06
2018-03-15T10:45:09.815Z,99774.97
2018-03-15T10:46:15.585Z,99781.95
2018-03-15T10:47:20.915Z,99771.00
2018-03-15T10:48:28.117Z,99768.53
2018-03-15T10:49:34.705Z,99764.61
2018-03-15T10:50:40.776Z,99769.47
2018-03-15T10:51:44.972Z,99761.47
2018-03-15T10:52:49.174Z,99771.58
2018-03-15T10:53:57.670Z,99769.22
2018-03-15T10:55:05.585Z,99770.51
2018-03-15T10:56:10.292Z,99758.75
2018-03-15T10:57:14.494Z,99760.25
2018-03-15T10:58:18.726Z,99760.38
2018-03-15T10:59:27.135Z,99764.98
2018-03-15T11:00:39.875Z,99767.23
2018-03-15T11:03:39.884Z,99769.25
2018-03-15T11:04:49.662Z,99773.79
2018-03-15T11:06:04.760Z,99767.64
2018-03-15T11:07:14.574Z,99765.27
2018-03-15T11:08:26.064Z,99757.19
2018-03-15T11:09:32.665Z,99760.47
2018-03-15T11:10:37.840Z,99759.36
2018-03-15T11:11:42.062Z,99752.62
2018-03-15T11:12:46.367Z,99750.88
2018-03-15T11:13:54.293Z,99748.58
2018-03-15T11:15:00.507Z,99745.14
2018-03-15T11:16:06.861Z,99746.50
2018-03-15T11:17:11.056Z,99743.13
2018-03-15T11:18:15.280Z,99743.15
2018-03-15T11:19:19.678Z,99744.52
2018-03-15T11:20:27.933Z,99743.45
2018-03-15T11:21:35.340Z,99736.67
2018-03-15T11:22:40.553Z,99747.75
2018-03-15T11:23:44.811Z,99742.39
2018-03-15T11:24:49.013Z,99745.67
2018-03-15T11:25:57.160Z,99748.06
2018-03-15T11:27:04.395Z,99741.40
2018-03-15T11:28:10.570Z,99751.98
2018-03-15T11:29:14.959Z,99754.83
2018-03-15T11:30:20.521Z,99747.67
2018-03-15T11:31:29.801Z,99742.34
2018-03-15T11:32:36.524Z,99742.20
2018-03-15T11:33:40.807Z,99740.88
2018-03-15T11:34:45.830Z,99736.08
2018-03-15T11:35:52.406Z,99737.98
2018-03-15T11:37:01.662Z,99741.42
2018-03-15T11:38:07.886Z,99741.56
2018-03-15T11:39:12.133Z,99745.46
2018-03-15T11:40:16.411Z,99733.52
2018-03-15T11:41:25.475Z,99748.70
2018-03-15T11:42:36.673Z,99740.09
2018-03-15T11:43:41.935Z,99736.70
2018-03-15T11:44:46.160Z,99734.66
2018-03-15T11:45:54.452Z,99738.30
2018-03-15T11:47:00.989Z,99735.70
2018-03-15T11:48:07.012Z,99725.15
2018-03-15T11:49:11.701Z,99720.31
2018-03-15T11:50:15.899Z,99707.62
2018-03-15T11:51:23.930Z,99714.25
2018-03-15T11:52:32.356Z,99718.84
2018-03-15T11:53:38.033Z,99701.56
2018-03-15T11:54:42.260Z,99708.52
2018-03-15T11:55:46.479Z,99709.95
2018-03-15T11:56:52.011Z,99715.84
2018-03-15T11:58:01.078Z,99706.98
2018-03-15T11:59:08.897Z,99698.20
2018-03-15T12:00:13.138Z,99691.41
2018-03-15T12:01:17.344Z,99705.47
2018-03-15T12:02:29.206Z,99698.38
2018-03-15T12:03:36.799Z,99695.02
2018-03-15T12:04:41.182Z,99698.55
2018-03-15T12:05:46.176Z,99694.69
2018-03-15T12:06:53.464Z,99693.63
2018-03-15T12:08:00.772Z,99693.05
2018-03-15T12:09:07.182Z,99699.48
2018-03-15T12:10:11.442Z,99682.20
2018-03-15T12:11:16.449Z,99688.03
2018-03-15T12:12:22.278Z,99685.41
2018-03-15T12:13:36.892Z,99684.38
2018-03-15T12:14:41.706Z,99688.53
2018-03-15T12:15:45.974Z,99691.96
2018-03-15T12:16:52.247Z,99699.70
2018-03-15T12:17:59.306Z,99689.77
2018-03-15T12:19:04.221Z,99684.62
2018-03-15T12:20:10.510Z,99691.17
2018-03-15T12:21:14.711Z,99691.08
2018-03-15T12:22:18.896Z,99685.98
2018-03-15T12:23:27.432Z,99689.50
2018-03-15T12:24:35.981Z,99693.24
2018-03-15T12:25:40.616Z,99680.49
2018-03-15T12:26:45.623Z,99684.55
2018-03-15T12:27:50.676Z,99685.74
2018-03-15T12:28:59.514Z,99678.76
2018-03-15T12:30:04.383Z,99679.48
2018-03-15T12:31:09.562Z,99677.30
2018-03-15T12:32:14.526Z,99679.92
2018-03-15T12:33:18.733Z,99669.54
2018-03-15T12:34:26.911Z,99668.84
2018-03-15T12:35:34.654Z,99673.32
2018-03-15T12:36:39.251Z,99662.92
2018-03-15T12:37:43.436Z,99663.16
2018-03-15T12:38:48.410Z,99669.48
2018-03-15T12:39:57.331Z,99652.16
2018-03-15T12:41:03.670Z,99665.73
2018-03-15T12:42:08.953Z,99659.29
2018-03-15T12:43:13.154Z,99656.45
2018-03-15T12:44:17.370Z,99654.31
2018-03-15T12:45:26.525Z,99657.83
2018-03-15T12:46:35.702Z,99654.11